Startpagina
METAR-TAF:

METAR-TAF

Vliegvelden :

Pittsburgh, Pennsylvania, Verenigde Staten

Pittsburgh International Airport

breedte: 40-30-14N, lengte: 080-15-59W, hoogte: 366 m

Actueel weer

Dit bericht is 36 minuten geleden gemaakt, om 04:51 UTC
Wind 6 kt uit het noordwesten
Temperatuur 18°C
Vochtigheid 77%
Druk 1016 hPa
Zicht: 16.1 km
Weinig wolken op 6000 ft

METAR: KPIT 250451Z 32006KT 10SM FEW060 18/14 A3001 RMK AO2 SLP162 T01830139 402610183

Tijdstip: 01:27 (05:27 UTC)

Verwachting

Dit bericht is 2 uur en het 45 minuten geleden gemaakt, om 02:42 UTC
Verwachting geldig van 25 om 03 UTC tot 26 om 06 UTC
Wind 7 kt uit het westzuidwesten
Zicht: 10 km
Verspreide wolken op 6000 ft
Van 25 om 1500 UTC
Wind 11 kt uit het westen met uitschieters tot 20 kt
Zicht: 10 km
Verspreide wolken op 6000 ft
Van 26 om 0200 UTC
Wind 6 kt uit het westen
Zicht: 10 km
Onbewolkt

TAF: KPIT 250242Z 2503/2606 25007KT P6SM SCT060 FM251500 26011G20KT P6SM SCT060 FM260200 26006KT P6SM SKC

Waarnemingen en weersverwachtingen van meer dan 4000 vliegvelden (METAR en TAF).

De beschikbare stations zijn de gele en rode punten op de kaart.

Ga met uw muis naar het station om de naam te zien.

Klik dan om waarnemingen en weersverwachtingen te zien.

kaart wijzigen: klik op de groene knoppen met een zwart kruis om in te zoomen, op de groene knop met een streepje om uit te zoomen of op de groene pijlen voor aangrenzende kaarten.


METAR-TAF: